Louisburg, NC

11:01 AM EST on December 08, 2016 (GMT -0500)
Huntsburg and Royal | | Change Station

Elev 302 ft 36.04 °N, 78.35 °W | Updated 4 seconds ago

Mostly Cloudy
Mostly Cloudy
48.9 °F
Feels Like 46 °F
N
6.7
Wind Variable Wind from WNW
Gusts 9.8 mph

Today
High -- | Low -- °F
--% Chance of Precip.
Yesterday
High -- | Low -- °F
Precip. -- in
Pressure 30.12 in
Visibility 10.0 miles
Clouds Scattered Clouds 4300 ft
Mostly Cloudy 5500 ft
Windchill 46 °F
Dew Point 20 °F
Humidity 32%
Rainfall 0.00 in
Snow Depth Not available.
7:11 AM 4:58 PM
Waxing Gibbous, 64% visible
METAR KLHZ 081545Z AUTO 30003KT 10SM SCT043 BKN055 08/01 A3012 RMK AO2
Pressure 30.12 in
Visibility 10.0 miles
Clouds Scattered Clouds 4300 ft
Mostly Cloudy 5500 ft
Windchill 46 °F
Dew Point 20 °F
Humidity 32%
Rainfall 0.00 in
Snow Depth Not available.
7:11 AM 4:58 PM
Waxing Gibbous, 64% visible
METAR KLHZ 081545Z AUTO 30003KT 10SM SCT043 BKN055 08/01 A3012 RMK AO2

10-Day Weather Forecast

Almanac

Astronomy

Dec. 08, 2016 Rise Set
Actual Time
Civil Twilight
Nautical Twilight
Astronomical Twilight
Moon
Length of Visible Light
Length of Day
Tomorrow will be .
, % of the Moon is Illuminated

Today's Extremes

State Highs State Lows

Community

WunderPhotos

Upload Photos

1,956,274 photos uploaded!

WunderBlog® & News

Nearby

Air Quality

  Air Quality AQ Index Pollutant
Not available.

Snow Depth

Station Depth Elevation

Earthquake Activity

City Distance Mag. Time & Date
Minimum magnitude displayed is 2.5.

Coastal Water Temperatures

Place Temperature

Stations

Nearby Weather Stations

Station Location Temp. Windchill Dew Point Humidity Wind Precip. Elev Updated Type
                   

Watches & Warnings

There are currently no watches in effect.